Pagrindinis puslapis
METAR-TAF:

METAR-TAF

Oro uostai :

Pensakola, Florida, Jungtinės Amerikos Valstijos

platuma: 30-21-22N, ilguma: 087-19-24W, Aukštis: 9 m

Dabartinis oras

Ataskaita buvo paskelbta 1 valandą ir 13 minutes, ne 05:56 UTC
Ramus vėjas
Temperatūra 2°C
Drėgmė 87%
Slėgis 1026 hPa
Matomumas: 14.5 km
Giedras dangus

METAR: KNPA 280556Z AUTO 00000KT 9SM CLR 02/00 A3030 RMK AO2 SLP260 T00220000 10094 20022 401390022 50002

Laikas: 01:09 (07:09 UTC)

Prognozė

Prognozė galioja nuo 27 metu 23 UTC su 28 metu 23 UTC
Vėjas 6 kt iš Šiaurės/Šiaurės Vakarų
Matomumas 10 km arba daugiau
Giedras dangus
Nuo 28 metu 1900 UTC
Vėjas 13 kt iš Vakarų/Pietvakarių su gūsio iki 20 kt
Matomumas: 2812 m
Mažai debesys ne aukštis 25000 ft

TAF: KNPA 2723/2823 33006KT 9999 SKC 511804 522209 QNH3023INS FM281900 25013G20KT 9999 FEW250 511804 522209 QNH3021INS AUTOMATED SENSOR METWATCH 2803 TIL 2812 T02/2812Z T15/2819Z FN20034

Orai ataskaitas ir orų prognozės (METAR, TAF).

turimą stotys yra geltonos ir raudonos taškus žemėlapyje.

Perkelti pele per norėdami pamatyti stoties vardą.

Tada spustelėkite, norėdami matyti oro stebėjimo ir prognozės.

Norėdami pakeisti žemėlapį: spustelėkite ant žalios mygtukų su juodo kryžiaus žemyn,; žalią mygtuką su brūkšneliu, jei norite nutolinti; arba žalių rodyklių gretimoms žemėlapius.


METAR-TAF: